Time;durP1;ratioP1;P1;durP2;ratioP2;P2;SDS_P1;SDS_P2;PMS_P1;PMS_P2;Temp;Humidity;BMP_temperature;BMP_pressure;BME280_temperature;BME280_humidity;BME280_pressure;Samples;Min_cycle;Max_cycle;Signal;HPM_P1;HPM_P2
2021/04/13 00:01:23;;;;;;;7.03;6.33;;;7.00;70.60;;;;;;5070845;28;20621;-51
2021/04/13 00:04:01;;;;;;;6.53;5.93;;;7.10;70.50;;;;;;5072198;28;20613;-50
2021/04/13 00:06:31;;;;;;;8.77;7.07;;;7.10;70.50;;;;;;5071075;28;20711;-50
2021/04/13 00:09:00;;;;;;;7.10;6.10;;;7.00;70.30;;;;;;5069898;28;20746;-50
2021/04/13 00:11:26;;;;;;;7.30;6.60;;;7.00;70.50;;;;;;5073145;28;20629;-50
2021/04/13 00:13:54;;;;;;;7.47;6.87;;;7.00;70.70;;;;;;5071837;28;20655;-50
2021/04/13 00:16:22;;;;;;;8.27;7.30;;;6.90;71.10;;;;;;5072869;28;20636;-50
2021/04/13 00:18:51;;;;;;;8.50;7.63;;;6.90;71.30;;;;;;5072577;28;20625;-49
2021/04/13 00:21:19;;;;;;;9.43;7.23;;;6.90;71.70;;;;;;5072588;28;20633;-50
2021/04/13 00:23:46;;;;;;;7.00;6.33;;;7.00;72.10;;;;;;5072340;28;20686;-50
2021/04/13 00:26:20;;;;;;;7.33;5.87;;;7.00;72.10;;;;;;5072692;28;20717;-50
2021/04/13 00:28:47;;;;;;;7.60;6.90;;;7.00;71.90;;;;;;5072613;28;20683;-50
2021/04/13 00:31:19;;;;;;;7.63;6.93;;;7.00;71.90;;;;;;5073044;28;20625;-50
2021/04/13 00:33:46;;;;;;;8.03;7.43;;;7.00;72.20;;;;;;5071951;28;20633;-51
2021/04/13 00:36:15;;;;;;;7.70;7.00;;;7.00;71.90;;;;;;5072312;28;20622;-51
2021/04/13 00:38:43;;;;;;;9.70;7.40;;;6.90;71.40;;;;;;5072265;28;20619;-50
2021/04/13 00:41:12;;;;;;;9.27;7.80;;;6.90;71.20;;;;;;5072938;28;20962;-50
2021/04/13 00:43:41;;;;;;;7.30;6.70;;;6.80;71.40;;;;;;5072248;28;21085;-51
2021/04/13 00:46:08;;;;;;;7.50;6.90;;;6.70;71.70;;;;;;5072586;28;20723;-50
2021/04/13 00:48:35;;;;;;;8.23;7.53;;;6.70;72.50;;;;;;5072039;28;20691;-50
2021/04/13 00:51:04;;;;;;;11.30;7.23;;;6.70;72.40;;;;;;5070907;28;20613;-50
2021/04/13 00:53:33;;;;;;;8.83;8.07;;;6.70;72.50;;;;;;5071804;28;20625;-51
2021/04/13 00:56:02;;;;;;;7.70;7.00;;;6.70;72.80;;;;;;5071762;28;20665;-50
2021/04/13 00:58:30;;;;;;;11.00;8.77;;;6.70;73.20;;;;;;5071921;28;20647;-51
2021/04/13 01:01:34;;;;;;;8.77;7.93;;;6.70;73.40;;;;;;5072460;28;20691;-50
2021/04/13 01:04:02;;;;;;;11.17;8.27;;;6.80;73.30;;;;;;5068834;28;20675;-50
2021/04/13 01:06:57;;;;;;;8.00;7.23;;;6.80;72.80;;;;;;5071592;28;21044;-50
2021/04/13 01:09:25;;;;;;;13.07;10.10;;;6.70;72.70;;;;;;5064238;28;21031;-50
2021/04/13 01:11:54;;;;;;;10.80;9.80;;;6.70;72.80;;;;;;5071611;28;20679;-50
2021/04/13 01:14:21;;;;;;;10.80;9.90;;;6.70;72.70;;;;;;5066951;28;20714;-50
2021/04/13 01:17:24;;;;;;;9.57;8.67;;;6.70;72.50;;;;;;5069818;28;20632;-50
2021/04/13 01:19:53;;;;;;;10.93;9.83;;;6.80;72.60;;;;;;5068273;28;20625;-50
2021/04/13 01:22:26;;;;;;;10.50;9.40;;;6.70;72.60;;;;;;5071916;28;21170;-50
2021/04/13 01:24:55;;;;;;;11.80;10.80;;;6.80;72.80;;;;;;5071414;28;20661;-50
2021/04/13 01:27:22;;;;;;;12.60;10.90;;;6.80;73.20;;;;;;5071249;28;21249;-50
2021/04/13 01:29:50;;;;;;;12.53;11.33;;;6.80;73.10;;;;;;5070278;28;20634;-50
2021/04/13 01:32:18;;;;;;;10.47;9.57;;;6.70;72.60;;;;;;5071780;28;20676;-50
2021/04/13 01:35:01;;;;;;;10.50;9.60;;;6.70;73.10;;;;;;5071167;28;20714;-50
2021/04/13 01:37:36;;;;;;;12.43;9.77;;;6.70;73.00;;;;;;5071545;28;20621;-50
2021/04/13 01:40:16;;;;;;;11.43;10.37;;;6.70;72.90;;;;;;5066508;28;20666;-50
2021/04/13 01:42:43;;;;;;;10.03;8.60;;;6.70;74.50;;;;;;5051567;28;20676;-50
2021/04/13 01:45:12;;;;;;;11.03;10.03;;;6.70;75.00;;;;;;5070703;28;20649;-50
2021/04/13 01:47:38;;;;;;;9.97;9.17;;;6.70;74.30;;;;;;5071034;28;21171;-50
2021/04/13 01:50:06;;;;;;;10.23;9.13;;;6.60;73.80;;;;;;5071315;28;20625;-50
2021/04/13 01:52:34;;;;;;;12.27;10.70;;;6.60;73.30;;;;;;5071772;28;20789;-49
2021/04/13 01:55:05;;;;;;;10.10;9.10;;;6.60;72.70;;;;;;5070795;28;20653;-50
2021/04/13 01:57:36;;;;;;;10.53;9.43;;;6.60;72.40;;;;;;5070393;28;20625;-50
2021/04/13 02:00:09;;;;;;;11.43;10.13;;;6.60;72.40;;;;;;5068331;28;20617;-50
2021/04/13 02:02:38;;;;;;;12.07;10.87;;;6.60;72.60;;;;;;5070813;28;20670;-49
2021/04/13 02:05:08;;;;;;;9.07;8.17;;;6.60;72.50;;;;;;5071657;28;21270;-49
2021/04/13 02:07:42;;;;;;;10.00;9.00;;;6.60;71.90;;;;;;5070767;28;20783;-50
2021/04/13 02:10:18;;;;;;;10.53;9.63;;;6.50;71.40;;;;;;5071040;28;20621;-51
2021/04/13 02:12:46;;;;;;;10.63;9.63;;;6.50;71.40;;;;;;5069410;28;20621;-51
2021/04/13 02:15:20;;;;;;;9.97;9.07;;;6.40;71.40;;;;;;5050887;28;21057;-51
2021/04/13 02:17:48;;;;;;;9.43;8.63;;;6.40;72.00;;;;;;5061035;28;20694;-51
2021/04/13 02:20:15;;;;;;;11.50;9.83;;;6.30;72.10;;;;;;5070579;28;21190;-51
2021/04/13 02:22:43;;;;;;;10.23;9.33;;;6.20;72.30;;;;;;5071171;28;20655;-51
2021/04/13 02:25:11;;;;;;;10.60;9.60;;;6.20;72.20;;;;;;5071297;28;20661;-51
2021/04/13 02:27:39;;;;;;;10.90;9.87;;;6.20;72.60;;;;;;5070777;28;20710;-51
2021/04/13 02:30:09;;;;;;;12.07;10.13;;;6.10;72.70;;;;;;5071026;28;20629;-51
2021/04/13 02:32:41;;;;;;;11.40;10.40;;;6.10;73.40;;;;;;5070547;28;20632;-51
2021/04/13 02:35:15;;;;;;;13.07;11.37;;;6.00;72.80;;;;;;5071062;28;20707;-51
2021/04/13 02:37:44;;;;;;;14.03;11.00;;;6.00;73.00;;;;;;5070472;28;20629;-52
2021/04/13 02:40:15;;;;;;;11.67;10.47;;;6.00;73.00;;;;;;5070747;28;20625;-51
2021/04/13 02:42:43;;;;;;;10.60;9.50;;;6.00;73.20;;;;;;5074304;28;21076;-51
2021/04/13 02:45:11;;;;;;;11.90;10.50;;;5.90;73.30;;;;;;5074803;28;20648;-51
2021/04/13 02:47:44;;;;;;;13.63;11.13;;;5.90;73.60;;;;;;5074166;28;20662;-51
2021/04/13 02:50:14;;;;;;;11.67;10.67;;;5.90;73.90;;;;;;5075096;28;20625;-51
2021/04/13 02:52:43;;;;;;;13.30;10.67;;;5.90;73.80;;;;;;5074929;28;21041;-51
2021/04/13 02:55:13;;;;;;;11.47;10.37;;;5.90;74.00;;;;;;5074161;28;20665;-52
2021/04/13 02:57:41;;;;;;;11.33;9.60;;;5.90;74.30;;;;;;5073971;28;20698;-51
2021/04/13 03:00:16;;;;;;;11.27;10.07;;;5.90;74.50;;;;;;5074161;28;20637;-51
2021/04/13 03:02:44;;;;;;;14.27;11.87;;;5.90;75.40;;;;;;5074133;28;20628;-51
2021/04/13 03:05:14;;;;;;;12.67;11.57;;;5.90;75.40;;;;;;5073987;28;20710;-51
2021/04/13 03:07:41;;;;;;;12.33;11.13;;;5.90;75.00;;;;;;5074178;28;20665;-50
2021/04/13 03:10:09;;;;;;;19.87;12.80;;;5.90;75.30;;;;;;5074226;28;20652;-50
2021/04/13 03:12:37;;;;;;;12.67;11.37;;;5.90;75.20;;;;;;5074376;28;21259;-50
2021/04/13 03:15:05;;;;;;;11.47;10.37;;;5.90;75.00;;;;;;5074155;28;21256;-50
2021/04/13 03:17:33;;;;;;;14.67;13.10;;;5.90;75.00;;;;;;5073927;28;20686;-50
2021/04/13 03:20:02;;;;;;;14.90;13.40;;;5.90;74.80;;;;;;5073423;28;20699;-50
2021/04/13 03:22:28;;;;;;;13.10;11.67;;;5.90;75.20;;;;;;5073467;28;20698;-50
2021/04/13 03:24:55;;;;;;;12.60;11.40;;;5.90;75.90;;;;;;5072768;28;20679;-50
2021/04/13 03:27:23;;;;;;;15.07;13.57;;;6.00;76.10;;;;;;5073578;28;20706;-50
2021/04/13 03:29:52;;;;;;;14.43;12.93;;;6.00;75.50;;;;;;5070518;28;20693;-51
2021/04/13 03:32:20;;;;;;;14.23;12.47;;;5.90;75.20;;;;;;5060367;28;20995;-51
2021/04/13 03:34:47;;;;;;;13.60;11.73;;;5.90;75.70;;;;;;5074120;28;21195;-51
2021/04/13 03:37:15;;;;;;;14.30;12.80;;;6.00;76.50;;;;;;5073266;28;20629;-51
2021/04/13 03:39:42;;;;;;;13.47;12.17;;;6.00;76.70;;;;;;5073528;28;20637;-51
2021/04/13 03:42:13;;;;;;;15.10;13.50;;;6.00;76.60;;;;;;5068815;28;20711;-52
2021/04/13 03:44:40;;;;;;;12.40;11.30;;;6.00;76.40;;;;;;5053625;28;20661;-52
2021/04/13 03:47:10;;;;;;;13.00;11.73;;;6.00;76.30;;;;;;5053440;28;20715;-52
2021/04/13 03:49:38;;;;;;;14.73;12.60;;;6.00;76.20;;;;;;5062633;28;20635;-52
2021/04/13 03:52:08;;;;;;;14.03;12.83;;;6.00;75.80;;;;;;5073512;28;20625;-52
2021/04/13 03:54:36;;;;;;;14.80;12.97;;;5.90;75.30;;;;;;5072397;28;20710;-52
2021/04/13 03:57:03;;;;;;;13.17;11.97;;;5.90;75.90;;;;;;5073479;28;21049;-52
2021/04/13 03:59:30;;;;;;;13.90;12.50;;;5.90;76.00;;;;;;5071490;28;20797;-53
2021/04/13 04:01:57;;;;;;;14.30;12.80;;;5.80;75.70;;;;;;5071641;28;20625;-54
2021/04/13 04:04:31;;;;;;;14.80;13.00;;;5.80;76.00;;;;;;5073004;28;20653;-52
2021/04/13 04:07:00;;;;;;;14.77;13.13;;;5.80;76.50;;;;;;5073431;28;20700;-52
2021/04/13 04:09:37;;;;;;;14.33;12.83;;;5.80;76.40;;;;;;5072625;28;20625;-52
2021/04/13 04:12:18;;;;;;;16.40;14.07;;;5.80;76.90;;;;;;5073050;28;20632;-52
2021/04/13 04:14:56;;;;;;;14.23;12.77;;;5.70;76.70;;;;;;5056161;28;21233;-52
2021/04/13 04:17:22;;;;;;;14.23;12.93;;;5.80;76.60;;;;;;5052826;28;21187;-52
2021/04/13 04:19:56;;;;;;;13.43;11.80;;;5.70;76.40;;;;;;5070645;28;20633;-52
2021/04/13 04:22:24;;;;;;;13.93;12.40;;;5.70;76.40;;;;;;5072989;28;20651;-52
2021/04/13 04:24:51;;;;;;;13.53;12.23;;;5.70;76.30;;;;;;5072356;28;20665;-52
2021/04/13 04:27:21;;;;;;;14.83;13.40;;;5.70;76.20;;;;;;5072071;28;20641;-52
2021/04/13 04:29:49;;;;;;;15.33;12.47;;;5.60;76.50;;;;;;5072917;28;20632;-52
2021/04/13 04:32:18;;;;;;;15.33;13.87;;;5.70;76.70;;;;;;5072439;28;21206;-52
2021/04/13 04:34:54;;;;;;;15.90;14.20;;;5.60;76.50;;;;;;5072466;28;20706;-52
2021/04/13 04:37:32;;;;;;;17.87;14.20;;;5.60;76.90;;;;;;5071153;28;20741;-52
2021/04/13 04:40:20;;;;;;;15.70;14.10;;;5.60;77.00;;;;;;5070025;28;20674;-52
2021/04/13 04:42:49;;;;;;;15.10;13.50;;;5.60;76.50;;;;;;5072576;28;20690;-51
2021/04/13 04:45:17;;;;;;;16.50;12.33;;;5.50;76.50;;;;;;5068224;28;20725;-52
2021/04/13 04:47:45;;;;;;;17.57;13.47;;;5.50;76.90;;;;;;5071061;28;20723;-52
2021/04/13 04:50:12;;;;;;;13.93;12.40;;;5.50;77.20;;;;;;5072279;28;20663;-52
2021/04/13 04:52:39;;;;;;;16.03;14.43;;;5.50;77.00;;;;;;5072000;28;20641;-52
2021/04/13 04:55:07;;;;;;;15.20;13.30;;;5.50;76.30;;;;;;5071809;28;20677;-52
2021/04/13 04:57:35;;;;;;;16.33;14.03;;;5.50;76.00;;;;;;5070426;28;20995;-52
2021/04/13 05:00:01;;;;;;;15.20;13.80;;;5.50;76.00;;;;;;5071915;28;20629;-52
2021/04/13 05:02:28;;;;;;;15.98;14.27;;;5.50;75.90;;;;;;5070087;28;20628;-52
2021/04/13 05:04:55;;;;;;;19.03;15.77;;;5.50;76.30;;;;;;5071602;28;20241;-52
2021/04/13 05:07:22;;;;;;;18.20;16.40;;;5.50;75.80;;;;;;5070973;28;20657;-52
2021/04/13 05:09:48;;;;;;;18.50;15.83;;;5.40;75.40;;;;;;5071581;28;21170;-52
2021/04/13 05:12:15;;;;;;;15.43;13.93;;;5.30;75.20;;;;;;5071605;28;21227;-52
2021/04/13 05:14:43;;;;;;;19.13;16.87;;;5.30;75.20;;;;;;5071471;28;20668;-52
2021/04/13 05:17:10;;;;;;;19.90;16.67;;;5.10;75.40;;;;;;5071761;28;20980;-51
2021/04/13 05:19:36;;;;;;;20.90;16.17;;;5.10;76.00;;;;;;5071516;28;20633;-52
2021/04/13 05:22:03;;;;;;;21.98;15.73;;;5.10;76.40;;;;;;5071462;28;20664;-52
2021/04/13 05:24:30;;;;;;;19.53;15.97;;;5.10;77.10;;;;;;5069922;28;20215;-51
2021/04/13 05:26:57;;;;;;;17.23;15.00;;;5.20;78.00;;;;;;5071351;28;20670;-51
2021/04/13 05:29:23;;;;;;;16.67;14.60;;;5.20;78.10;;;;;;5070841;28;20667;-50
2021/04/13 05:31:51;;;;;;;17.37;14.63;;;5.30;78.20;;;;;;5071005;28;20629;-52
2021/04/13 05:34:18;;;;;;;16.93;15.17;;;5.40;78.30;;;;;;5069973;28;20660;-51
2021/04/13 05:36:45;;;;;;;17.87;15.97;;;5.50;78.20;;;;;;5070754;28;20694;-51
2021/04/13 05:39:13;;;;;;;18.20;16.30;;;5.60;78.20;;;;;;5066667;28;20691;-51
2021/04/13 05:41:40;;;;;;;17.77;15.87;;;5.60;77.60;;;;;;5069860;28;20625;-51
2021/04/13 05:44:07;;;;;;;22.30;17.50;;;5.60;76.90;;;;;;5070313;28;20673;-50
2021/04/13 05:46:34;;;;;;;19.27;17.23;;;5.60;76.50;;;;;;5071072;28;20649;-50
2021/04/13 05:49:02;;;;;;;19.87;16.80;;;5.60;76.40;;;;;;5070624;28;20711;-52
2021/04/13 05:51:29;;;;;;;17.73;15.90;;;5.70;77.20;;;;;;5067389;28;20630;-50
2021/04/13 05:53:56;;;;;;;18.37;15.87;;;5.70;77.40;;;;;;5069997;28;20629;-50
2021/04/13 05:56:25;;;;;;;18.63;15.73;;;5.80;77.10;;;;;;5065856;28;20678;-50
2021/04/13 05:58:51;;;;;;;23.93;18.00;;;5.90;77.00;;;;;;5070979;28;20671;-51
2021/04/13 06:01:20;;;;;;;21.80;17.63;;;5.90;76.70;;;;;;5065380;28;20648;-51
2021/04/13 06:03:46;;;;;;;19.37;16.43;;;5.90;76.70;;;;;;5070529;28;20630;-51
2021/04/13 06:06:14;;;;;;;18.50;16.60;;;6.00;76.90;;;;;;5070515;28;21189;-51
2021/04/13 06:08:41;;;;;;;18.97;16.83;;;6.10;76.90;;;;;;5068089;28;20683;-50
2021/04/13 06:11:09;;;;;;;16.93;15.00;;;6.20;76.70;;;;;;5067241;28;20630;-51
2021/04/13 06:13:36;;;;;;;20.23;16.30;;;6.30;76.40;;;;;;5069638;28;20690;-50
2021/04/13 06:16:05;;;;;;;20.77;17.37;;;6.40;76.20;;;;;;5064139;28;20995;-51
2021/04/13 06:18:32;;;;;;;17.60;15.80;;;6.40;75.80;;;;;;5070817;28;20671;-50
2021/04/13 06:20:58;;;;;;;18.27;16.47;;;6.50;75.80;;;;;;5071033;28;20675;-50
2021/04/13 06:23:26;;;;;;;18.50;16.57;;;6.60;76.10;;;;;;5072244;28;20630;-50
2021/04/13 06:25:53;;;;;;;16.50;14.73;;;6.80;76.10;;;;;;5071145;28;20651;-50
2021/04/13 06:28:20;;;;;;;14.73;13.43;;;6.90;75.70;;;;;;5072935;28;20659;-50
2021/04/13 06:30:47;;;;;;;15.47;13.40;;;7.10;74.90;;;;;;5073078;28;20626;-51
2021/04/13 06:33:15;;;;;;;15.97;14.37;;;7.30;73.80;;;;;;5071882;28;21147;-50
2021/04/13 06:35:45;;;;;;;16.00;14.50;;;7.40;73.00;;;;;;5074085;28;20713;-49
2021/04/13 06:38:14;;;;;;;16.67;14.97;;;7.60;72.00;;;;;;5069425;28;21172;-51
2021/04/13 06:41:02;;;;;;;16.77;14.43;;;7.80;70.70;;;;;;5070964;28;20689;-51
2021/04/13 06:43:43;;;;;;;17.20;15.50;;;7.90;69.60;;;;;;5058557;28;21181;-50
2021/04/13 06:46:13;;;;;;;15.57;13.97;;;8.10;68.90;;;;;;5071995;28;20652;-50
2021/04/13 06:49:02;;;;;;;13.80;12.50;;;8.30;67.90;;;;;;5064891;28;20668;-51
2021/04/13 06:51:34;;;;;;;15.27;13.77;;;8.40;66.50;;;;;;5068333;28;20683;-51
2021/04/13 06:54:05;;;;;;;16.37;14.70;;;8.50;65.70;;;;;;5066399;28;20763;-51
2021/04/13 06:56:50;;;;;;;15.73;14.17;;;8.60;63.90;;;;;;5068550;28;20625;-52
2021/04/13 06:59:47;;;;;;;13.90;12.50;;;8.70;63.10;;;;;;5071443;28;20710;-51
2021/04/13 07:02:15;;;;;;;14.87;13.37;;;8.70;62.50;;;;;;5070472;28;21032;-51
2021/04/13 07:04:43;;;;;;;17.60;15.17;;;8.80;62.30;;;;;;5066075;28;20689;-51
2021/04/13 07:07:12;;;;;;;16.07;14.40;;;9.00;61.50;;;;;;5068211;28;20657;-51
2021/04/13 07:09:42;;;;;;;17.90;16.17;;;9.10;61.80;;;;;;5068439;28;21158;-52
2021/04/13 07:12:14;;;;;;;17.30;15.70;;;9.20;61.00;;;;;;5073655;28;21231;-52
2021/04/13 07:14:46;;;;;;;18.00;16.30;;;9.40;61.00;;;;;;5073743;28;20654;-51
2021/04/13 07:17:17;;;;;;;21.87;17.57;;;9.60;59.60;;;;;;5073408;28;20666;-52
2021/04/13 07:19:46;;;;;;;18.80;16.90;;;9.80;59.20;;;;;;5073429;28;20625;-52
2021/04/13 07:22:15;;;;;;;17.50;15.80;;;9.90;58.30;;;;;;5073363;28;21044;-52
2021/04/13 07:24:45;;;;;;;17.60;15.80;;;10.10;57.10;;;;;;5073082;28;20655;-51
2021/04/13 07:27:14;;;;;;;18.17;15.73;;;10.20;56.80;;;;;;5072211;28;21197;-52
2021/04/13 07:29:43;;;;;;;18.80;16.90;;;10.30;57.00;;;;;;5072822;28;20659;-52
2021/04/13 07:32:11;;;;;;;19.37;17.33;;;10.50;56.30;;;;;;5073452;28;20644;-51
2021/04/13 07:34:38;;;;;;;17.63;16.03;;;10.60;55.90;;;;;;5073115;28;20710;-56
2021/04/13 07:37:10;;;;;;;16.17;14.87;;;10.80;55.60;;;;;;5073560;28;20652;-50
2021/04/13 07:39:38;;;;;;;14.30;13.00;;;11.00;54.50;;;;;;5073097;28;20628;-50
2021/04/13 07:42:05;;;;;;;15.27;13.87;;;11.20;53.80;;;;;;5071497;28;20672;-50
2021/04/13 07:44:39;;;;;;;16.03;14.30;;;11.30;51.90;;;;;;5063333;28;20702;-51
2021/04/13 07:47:20;;;;;;;16.43;14.93;;;11.40;52.10;;;;;;5066213;28;20721;-51
2021/04/13 07:49:49;;;;;;;15.77;14.37;;;11.50;51.90;;;;;;5068705;28;20629;-51
2021/04/13 07:52:35;;;;;;;14.47;12.97;;;11.70;50.90;;;;;;5067677;28;20637;-50
2021/04/13 07:55:08;;;;;;;15.13;12.57;;;11.90;50.30;;;;;;5069683;28;21021;-51
2021/04/13 07:57:40;;;;;;;13.97;12.60;;;12.10;50.10;;;;;;5069989;28;21188;-50
2021/04/13 08:00:14;;;;;;;16.33;14.73;;;12.20;49.10;;;;;;5070858;28;21058;-50
2021/04/13 08:02:41;;;;;;;16.00;14.50;;;12.40;48.20;;;;;;5067171;28;21112;-51
2021/04/13 08:05:10;;;;;;;14.47;13.17;;;12.60;47.60;;;;;;5069168;28;20790;-52
2021/04/13 08:07:37;;;;;;;15.40;13.90;;;12.70;47.00;;;;;;5065770;28;20660;-52
2021/04/13 08:10:17;;;;;;;15.70;14.30;;;12.80;46.50;;;;;;5071155;28;20664;-51
2021/04/13 08:12:53;;;;;;;13.90;12.70;;;12.90;46.20;;;;;;5072230;28;20674;-54
2021/04/13 08:15:39;;;;;;;13.77;11.90;;;12.90;45.20;;;;;;5069914;28;21059;-51
2021/04/13 08:18:09;;;;;;;13.03;10.77;;;12.70;43.90;;;;;;5068087;28;20673;-51
2021/04/13 08:20:37;;;;;;;12.07;10.80;;;12.60;43.70;;;;;;5068891;28;20629;-51
2021/04/13 08:23:06;;;;;;;12.70;11.60;;;12.40;43.40;;;;;;5067840;28;20662;-50
2021/04/13 08:25:37;;;;;;;11.40;10.23;;;12.30;43.40;;;;;;5069270;28;20742;-50
2021/04/13 08:28:24;;;;;;;12.37;11.20;;;12.40;44.00;;;;;;5068318;28;21074;-51
2021/04/13 08:32:49;;;;;;;12.00;10.90;;;12.40;43.40;;;;;;5068104;28;20661;-51
2021/04/13 08:33:53;;;;;;;10.70;9.90;;;12.30;43.10;;;;;;5071756;28;20680;-51
2021/04/13 08:36:21;;;;;;;12.30;11.03;;;12.30;44.20;;;;;;5071322;28;21243;-50
2021/04/13 08:38:55;;;;;;;12.20;11.00;;;12.30;43.60;;;;;;5071161;28;20617;-50
2021/04/13 08:41:35;;;;;;;12.10;10.90;;;12.20;42.80;;;;;;5071748;28;20621;-51
2021/04/13 08:44:11;;;;;;;12.83;11.63;;;12.10;43.50;;;;;;5068826;28;20629;-51
2021/04/13 08:46:47;;;;;;;12.03;10.93;;;12.10;44.40;;;;;;5060349;28;20613;-51
2021/04/13 08:49:22;;;;;;;11.47;10.47;;;12.20;43.40;;;;;;5059466;28;21307;-51
2021/04/13 08:51:50;;;;;;;11.27;10.37;;;12.40;43.50;;;;;;5071073;28;21006;-51
2021/04/13 08:54:32;;;;;;;10.60;9.67;;;12.60;42.10;;;;;;5070942;28;20720;-51
2021/04/13 08:57:01;;;;;;;12.03;10.00;;;12.70;41.70;;;;;;5071640;28;20672;-51
2021/04/13 08:59:40;;;;;;;11.30;9.67;;;12.80;41.70;;;;;;5070742;28;20687;-50
2021/04/13 09:02:10;;;;;;;11.13;10.20;;;12.90;42.20;;;;;;5070052;28;20674;-50
2021/04/13 09:04:37;;;;;;;11.53;10.50;;;13.20;41.60;;;;;;5071121;28;20661;-50
2021/04/13 09:07:05;;;;;;;10.70;9.60;;;13.30;40.60;;;;;;5070516;28;20629;-51
2021/04/13 09:09:38;;;;;;;10.87;9.87;;;13.50;40.70;;;;;;5069069;28;20633;-51
2021/04/13 09:12:09;;;;;;;10.90;10.00;;;13.50;38.70;;;;;;5073792;28;21033;-51
2021/04/13 09:14:40;;;;;;;11.60;10.13;;;13.50;38.60;;;;;;5073366;28;20645;-52
2021/04/13 09:17:10;;;;;;;9.47;8.60;;;13.50;39.30;;;;;;5070394;28;20625;-51
2021/04/13 09:19:42;;;;;;;10.80;8.37;;;13.70;38.80;;;;;;5065504;28;20679;-51
2021/04/13 09:22:19;;;;;;;9.20;8.40;;;13.90;38.30;;;;;;5068653;28;20670;-51
2021/04/13 09:24:46;;;;;;;8.63;7.00;;;14.00;37.20;;;;;;5068938;28;20658;-51
2021/04/13 09:27:22;;;;;;;7.03;6.40;;;14.20;36.40;;;;;;5070950;28;20660;-51
2021/04/13 09:29:49;;;;;;;7.97;7.27;;;14.20;35.80;;;;;;5067115;28;20621;-51
2021/04/13 09:32:40;;;;;;;8.37;7.57;;;14.00;34.10;;;;;;5071260;28;20625;-52
2021/04/13 09:35:30;;;;;;;8.23;7.43;;;14.00;35.00;;;;;;5071527;28;20657;-51
2021/04/13 09:38:03;;;;;;;7.90;7.30;;;14.10;35.60;;;;;;5054226;28;20620;-51
2021/04/13 09:40:41;;;;;;;6.70;5.57;;;14.10;35.60;;;;;;5071319;28;20686;-51
2021/04/13 09:43:38;;;;;;;7.70;7.00;;;14.20;34.40;;;;;;5070835;28;20621;-51
2021/04/13 09:46:17;;;;;;;7.17;6.47;;;14.20;34.00;;;;;;5058293;28;21554;-52
2021/04/13 09:49:13;;;;;;;7.63;6.30;;;14.30;34.10;;;;;;5069980;28;20649;-51
2021/04/13 09:51:48;;;;;;;7.63;6.93;;;14.30;33.80;;;;;;5068307;28;20629;-51
2021/04/13 09:54:22;;;;;;;5.50;5.10;;;14.30;34.20;;;;;;5071126;28;21208;-52
2021/04/13 09:57:11;;;;;;;6.87;5.53;;;14.30;33.20;;;;;;5070865;28;21235;-52
2021/04/13 10:00:03;;;;;;;5.73;5.23;;;14.20;31.90;;;;;;5067129;28;20708;-52
2021/04/13 10:02:42;;;;;;;6.43;5.57;;;14.40;31.80;;;;;;5063598;28;20629;-52
2021/04/13 10:05:11;;;;;;;5.30;4.80;;;14.60;32.00;;;;;;5067457;28;21236;-52
2021/04/13 10:07:43;;;;;;;7.47;6.27;;;14.80;31.70;;;;;;5070201;28;20743;-52
2021/04/13 10:10:17;;;;;;;6.83;5.73;;;14.50;31.00;;;;;;5068946;28;21244;-52
2021/04/13 10:13:27;;;;;;;8.30;4.33;;;14.20;31.80;;;;;;5058257;28;20706;-51
2021/04/13 10:16:03;;;;;;;5.00;4.20;;;13.90;32.20;;;;;;5061145;28;20653;-52
2021/04/13 10:19:00;;;;;;;4.73;4.00;;;13.50;32.20;;;;;;5066948;28;20633;-52
2021/04/13 10:21:38;;;;;;;4.70;4.30;;;13.30;32.80;;;;;;5067029;28;20633;-50
2021/04/13 10:24:29;;;;;;;6.07;4.23;;;13.20;33.30;;;;;;5067412;28;20698;-51
2021/04/13 10:27:22;;;;;;;7.93;3.63;;;13.10;33.80;;;;;;5066031;28;20641;-52
2021/04/13 10:30:28;;;;;;;4.60;4.10;;;13.40;34.60;;;;;;5042771;28;20637;-52
2021/04/13 10:33:36;;;;;;;5.00;3.53;;;14.00;34.40;;;;;;5045113;28;20700;-52
2021/04/13 10:36:39;;;;;;;3.23;2.93;;;15.30;34.40;;;;;;5007461;28;20665;-51
2021/04/13 10:39:46;;;;;;;2.90;2.60;;;17.00;32.00;;;;;;5068486;28;20633;-53
2021/04/13 10:42:58;;;;;;;3.73;3.20;;;18.50;29.80;;;;;;5069504;28;20632;-51
2021/04/13 10:46:03;;;;;;;3.07;2.30;;;19.30;28.40;;;;;;5039299;28;20656;-51
2021/04/13 10:49:08;;;;;;;2.50;2.30;;;19.70;27.00;;;;;;5053331;28;20702;-51
2021/04/13 10:52:15;;;;;;;2.40;2.20;;;19.70;25.80;;;;;;5064532;28;20620;-52
2021/04/13 10:55:12;;;;;;;1.50;1.40;;;19.70;25.70;;;;;;5069700;28;20676;-51
2021/04/13 10:58:27;;;;;;;2.23;1.67;;;19.90;25.20;;;;;;5062969;28;20624;-51
2021/04/13 11:01:22;;;;;;;3.70;1.93;;;20.30;24.50;;;;;;5060216;28;20641;-51
2021/04/13 11:04:37;;;;;;;1.83;1.63;;;20.30;23.90;;;;;;5068667;28;20699;-51
2021/04/13 11:07:33;;;;;;;4.20;3.83;;;19.90;23.90;;;;;;5013398;28;20695;-52
2021/04/13 11:10:27;;;;;;;3.80;3.50;;;19.30;25.40;;;;;;5070664;28;20721;-52
2021/04/13 11:13:22;;;;;;;3.50;3.20;;;19.60;25.70;;;;;;5070376;28;20675;-52
2021/04/13 11:16:12;;;;;;;3.07;2.50;;;20.10;25.40;;;;;;5067073;28;20664;-52
2021/04/13 11:19:19;;;;;;;2.40;2.20;;;20.40;25.70;;;;;;5070441;28;20679;-53
2021/04/13 11:22:27;;;;;;;2.47;2.27;;;20.20;24.30;;;;;;5006341;28;20632;-53
2021/04/13 11:25:30;;;;;;;6.10;2.93;;;19.60;24.60;;;;;;5071110;28;21028;-53
2021/04/13 11:28:47;;;;;;;3.40;2.33;;;18.80;25.30;;;;;;5012685;28;20723;-52
2021/04/13 11:32:06;;;;;;;3.50;2.90;;;18.00;26.10;;;;;;5073678;28;20617;-54
2021/04/13 11:34:55;;;;;;;5.40;3.00;;;17.30;26.80;;;;;;5025008;28;20690;-51
2021/04/13 11:37:50;;;;;;;3.30;2.60;;;16.90;27.40;;;;;;5018711;28;21210;-51
2021/04/13 11:40:32;;;;;;;3.07;2.77;;;16.60;28.10;;;;;;5056498;28;20782;-51
2021/04/13 11:42:59;;;;;;;5.53;3.17;;;16.40;28.10;;;;;;5073588;28;20682;-51
2021/04/13 11:45:41;;;;;;;4.47;2.67;;;16.30;28.30;;;;;;5072151;28;20656;-51
2021/04/13 11:48:14;;;;;;;3.17;2.83;;;16.20;28.30;;;;;;5065198;28;20652;-52
2021/04/13 11:50:51;;;;;;;2.63;2.43;;;16.30;28.70;;;;;;5071884;28;20686;-52
2021/04/13 11:53:29;;;;;;;2.23;1.77;;;16.90;28.10;;;;;;5066265;28;20716;-53
2021/04/13 11:55:55;;;;;;;2.77;1.70;;;17.80;26.60;;;;;;5067369;28;20837;-52
2021/04/13 11:58:24;;;;;;;2.37;2.03;;;18.10;25.10;;;;;;5071370;28;20666;-52
2021/04/13 12:00:51;;;;;;;2.33;1.70;;;18.20;25.30;;;;;;5070046;28;21177;-53
2021/04/13 12:03:31;;;;;;;2.57;1.87;;;18.20;25.20;;;;;;5064379;28;21034;-52
2021/04/13 12:06:00;;;;;;;3.37;1.47;;;18.00;25.80;;;;;;5062441;28;20689;-53
2021/04/13 12:08:51;;;;;;;1.87;1.50;;;17.90;26.00;;;;;;5065844;28;20692;-52
2021/04/13 12:11:41;;;;;;;1.70;1.60;;;17.60;26.30;;;;;;5068951;28;20669;-52
2021/04/13 12:14:28;;;;;;;1.33;1.20;;;17.20;26.50;;;;;;5068291;28;21018;-52
2021/04/13 12:17:06;;;;;;;1.80;1.40;;;16.80;26.40;;;;;;5065770;28;20683;-52
2021/04/13 12:19:33;;;;;;;1.80;1.40;;;16.50;26.50;;;;;;5069039;28;20761;-52
2021/04/13 12:22:02;;;;;;;1.90;1.80;;;16.40;26.80;;;;;;5068033;28;20660;-52
2021/04/13 12:24:49;;;;;;;2.30;1.40;;;16.50;26.50;;;;;;5067395;28;20660;-51
2021/04/13 12:27:47;;;;;;;2.60;1.57;;;16.50;26.50;;;;;;5069167;28;20633;-51
2021/04/13 12:30:36;;;;;;;1.77;1.17;;;16.70;26.50;;;;;;5065593;28;20622;-51
2021/04/13 12:33:03;;;;;;;2.80;1.70;;;17.20;26.80;;;;;;5070979;28;20687;-53
2021/04/13 12:35:53;;;;;;;5.57;3.70;;;17.80;26.00;;;;;;5071818;28;21002;-52
2021/04/13 12:38:46;;;;;;;2.10;1.90;;;18.10;25.40;;;;;;5056345;28;21157;-53
2021/04/13 12:41:17;;;;;;;11.30;1.90;;;18.10;25.20;;;;;;5072126;28;20613;-52
2021/04/13 12:43:45;;;;;;;2.23;1.93;;;17.70;25.60;;;;;;5071381;28;20672;-52
2021/04/13 12:46:25;;;;;;;3.27;1.80;;;17.30;26.20;;;;;;5070928;28;20687;-52
2021/04/13 12:48:53;;;;;;;2.90;1.93;;;16.90;26.50;;;;;;5071683;28;20645;-52
2021/04/13 12:51:29;;;;;;;3.40;1.93;;;16.50;27.70;;;;;;5071850;28;20651;-52
2021/04/13 12:54:18;;;;;;;4.17;2.00;;;16.10;28.50;;;;;;5072464;28;20686;-56
2021/04/13 12:56:53;;;;;;;2.70;1.70;;;15.80;29.60;;;;;;5067158;28;21254;-52
2021/04/13 12:59:23;;;;;;;6.60;2.40;;;15.70;30.00;;;;;;5068605;28;21242;-51
2021/04/13 13:01:49;;;;;;;3.23;2.30;;;15.50;30.20;;;;;;5071437;28;20694;-52
2021/04/13 13:04:17;;;;;;;2.83;2.63;;;15.90;30.30;;;;;;5065730;28;20661;-51
2021/04/13 13:06:47;;;;;;;2.87;1.90;;;16.50;30.00;;;;;;5063194;28;21186;-52
2021/04/13 13:09:20;;;;;;;3.03;2.07;;;17.00;29.50;;;;;;5065438;28;21190;-52
2021/04/13 13:11:55;;;;;;;3.63;1.93;;;17.20;29.30;;;;;;5067082;28;20679;-51
2021/04/13 13:14:22;;;;;;;4.40;2.50;;;17.30;28.70;;;;;;5065244;28;20692;-51
2021/04/13 13:16:53;;;;;;;6.03;3.13;;;17.40;28.60;;;;;;5068521;28;20664;-51
2021/04/13 13:19:26;;;;;;;3.10;2.50;;;17.50;28.50;;;;;;5071244;28;20682;-52